createdAt,value
2023-05-28T00:01:29.069Z,56.94
2023-05-28T00:03:56.830Z,57.27
2023-05-28T00:06:24.479Z,57.59
2023-05-28T00:08:52.009Z,56.71
2023-05-28T00:11:19.566Z,58.79
2023-05-28T00:13:47.033Z,58.07
2023-05-28T00:16:15.330Z,58.05
2023-05-28T00:18:44.057Z,58.52
2023-05-28T00:21:11.742Z,58.24
2023-05-28T00:23:39.241Z,57.64
2023-05-28T00:26:07.062Z,58.87
2023-05-28T00:28:34.563Z,58.46
2023-05-28T00:31:03.482Z,58.68
2023-05-28T00:33:30.981Z,58.31
2023-05-28T00:35:59.949Z,59.70
2023-05-28T00:38:27.630Z,58.98
2023-05-28T00:40:55.699Z,59.39
2023-05-28T00:43:23.580Z,59.64
2023-05-28T00:45:52.883Z,58.90
2023-05-28T00:48:21.235Z,58.42
2023-05-28T00:50:49.365Z,59.60
2023-05-28T00:53:18.583Z,60.22
2023-05-28T00:55:46.496Z,58.74
2023-05-28T00:58:14.434Z,59.53
2023-05-28T01:00:44.130Z,59.71
2023-05-28T01:03:11.936Z,60.84
2023-05-28T01:05:39.689Z,59.35
2023-05-28T01:08:08.573Z,59.91
2023-05-28T01:10:38.247Z,59.91
2023-05-28T01:13:08.964Z,60.26
2023-05-28T01:15:38.236Z,60.22
2023-05-28T01:18:07.359Z,59.53
2023-05-28T01:20:35.007Z,61.33
2023-05-28T01:23:08.725Z,61.13
2023-05-28T01:25:38.645Z,60.71
2023-05-28T01:28:13.822Z,59.82
2023-05-28T01:30:41.391Z,60.09
2023-05-28T01:33:09.089Z,61.03
2023-05-28T01:35:36.773Z,61.08
2023-05-28T01:38:05.470Z,61.20
2023-05-28T01:40:34.831Z,61.57
2023-05-28T01:43:04.801Z,61.01
2023-05-28T01:45:32.829Z,61.71
2023-05-28T01:48:00.430Z,61.13
2023-05-28T01:50:29.650Z,62.02
2023-05-28T01:52:57.328Z,61.46
2023-05-28T01:55:25.371Z,61.58
2023-05-28T01:57:52.930Z,62.48
2023-05-28T02:00:23.407Z,61.89
2023-05-28T02:02:51.003Z,62.51
2023-05-28T02:05:18.790Z,62.62
2023-05-28T02:07:46.332Z,62.18
2023-05-28T02:10:13.897Z,62.13
2023-05-28T02:12:41.366Z,61.44
2023-05-28T02:15:09.504Z,62.57
2023-05-28T02:17:38.411Z,61.77
2023-05-28T02:20:07.170Z,62.08
2023-05-28T02:22:34.732Z,62.38
2023-05-28T02:25:02.249Z,63.73
2023-05-28T02:27:29.769Z,62.47
2023-05-28T02:29:57.306Z,63.18
2023-05-28T02:32:24.930Z,62.09
2023-05-28T02:34:55.616Z,61.72
2023-05-28T02:37:24.898Z,63.83
2023-05-28T02:39:52.716Z,63.76
2023-05-28T02:42:20.262Z,62.64
2023-05-28T02:44:47.738Z,63.03
2023-05-28T02:47:15.222Z,63.14
2023-05-28T02:49:42.750Z,63.75
2023-05-28T02:52:11.589Z,64.81
2023-05-28T02:54:39.090Z,62.66
2023-05-28T02:57:07.119Z,63.35
2023-05-28T02:59:34.659Z,63.59
2023-05-28T03:02:02.222Z,63.21
2023-05-28T03:04:29.761Z,62.54
2023-05-28T03:06:57.275Z,63.21
2023-05-28T03:09:26.101Z,64.18
2023-05-28T03:11:53.613Z,63.90
2023-05-28T03:14:21.112Z,63.25
2023-05-28T03:16:48.830Z,64.88
2023-05-28T03:19:16.418Z,64.82
2023-05-28T03:21:43.898Z,64.15
2023-05-28T03:24:11.410Z,63.20
2023-05-28T03:26:40.393Z,62.82
2023-05-28T03:29:07.861Z,63.98
2023-05-28T03:31:45.369Z,63.64
2023-05-28T03:34:13.222Z,63.76
2023-05-28T03:36:41.495Z,63.91
2023-05-28T03:39:09.247Z,64.35
2023-05-28T03:41:37.099Z,63.62
2023-05-28T03:44:07.271Z,65.89
2023-05-28T03:46:34.962Z,69.54
2023-05-28T03:49:02.534Z,68.63
2023-05-28T03:51:30.212Z,66.66
2023-05-28T03:53:57.696Z,65.44
2023-05-28T03:56:25.466Z,65.57
2023-05-28T03:58:53.013Z,64.68
2023-05-28T04:01:21.984Z,64.43
2023-05-28T04:03:49.608Z,65.11
2023-05-28T04:06:17.516Z,65.57
2023-05-28T04:08:45.079Z,63.25
2023-05-28T04:11:12.590Z,62.99
2023-05-28T04:13:40.254Z,64.07
2023-05-28T04:16:08.539Z,63.93
2023-05-28T04:18:37.483Z,63.76
2023-05-28T04:21:05.215Z,63.87
2023-05-28T04:23:32.703Z,64.08
2023-05-28T04:26:00.846Z,64.53
2023-05-28T04:28:28.808Z,63.59
2023-05-28T04:30:56.898Z,64.30
2023-05-28T04:33:25.055Z,64.79
2023-05-28T04:35:54.277Z,65.77
2023-05-28T04:38:22.196Z,63.29
2023-05-28T04:40:50.524Z,62.66
2023-05-28T04:43:18.255Z,68.88
2023-05-28T04:45:45.749Z,61.57
2023-05-28T04:48:13.262Z,62.32
2023-05-28T04:50:41.315Z,64.70
2023-05-28T04:53:10.267Z,67.97
2023-05-28T04:55:37.773Z,62.29
2023-05-28T04:58:05.292Z,64.20
2023-05-28T05:00:32.783Z,67.48
2023-05-28T05:03:00.370Z,67.96
2023-05-28T05:05:27.961Z,67.59
2023-05-28T05:07:55.436Z,62.99
2023-05-28T05:10:24.608Z,65.21
2023-05-28T05:12:52.153Z,65.01
2023-05-28T05:15:19.707Z,65.87
2023-05-28T05:17:47.890Z,65.94
2023-05-28T05:20:15.509Z,65.24
2023-05-28T05:22:43.054Z,68.59
2023-05-28T05:25:11.019Z,68.41
2023-05-28T05:27:39.873Z,62.87
2023-05-28T05:30:09.120Z,66.39
2023-05-28T05:32:36.680Z,66.33
2023-05-28T05:35:04.543Z,66.71
2023-05-28T05:37:32.051Z,65.63
2023-05-28T05:39:59.582Z,65.20
2023-05-28T05:42:27.079Z,63.59
2023-05-28T05:44:56.005Z,63.55
2023-05-28T05:47:23.573Z,64.73
2023-05-28T05:49:51.122Z,64.06
2023-05-28T05:52:18.603Z,67.28
2023-05-28T05:54:46.330Z,63.76
2023-05-28T05:57:14.126Z,66.21
2023-05-28T05:59:41.616Z,65.75
2023-05-28T06:02:10.994Z,63.64
2023-05-28T06:04:39.309Z,64.34
2023-05-28T06:07:07.746Z,61.43
2023-05-28T06:09:35.449Z,64.21
2023-05-28T06:12:03.958Z,62.56
2023-05-28T06:14:31.455Z,61.25
2023-05-28T06:16:59.019Z,61.79
2023-05-28T06:19:27.920Z,60.41
2023-05-28T06:21:55.406Z,62.32
2023-05-28T06:24:22.954Z,62.50
2023-05-28T06:26:50.465Z,61.31
2023-05-28T06:29:17.957Z,61.18
2023-05-28T06:31:45.674Z,60.23
2023-05-28T06:34:13.200Z,60.20
2023-05-28T06:36:42.620Z,59.20
2023-05-28T06:39:10.472Z,60.30
2023-05-28T06:41:38.075Z,61.24
2023-05-28T06:44:05.827Z,60.52
2023-05-28T06:46:33.518Z,58.64
2023-05-28T06:49:01.337Z,57.77
2023-05-28T06:51:28.857Z,56.19
2023-05-28T06:53:57.707Z,56.31
2023-05-28T06:56:25.474Z,57.14
2023-05-28T06:58:53.001Z,56.11
2023-05-28T07:01:20.562Z,56.74
2023-05-28T07:03:48.165Z,57.79
2023-05-28T07:06:16.191Z,60.27
2023-05-28T07:08:45.571Z,60.12
2023-05-28T07:11:15.137Z,58.34
2023-05-28T07:13:42.777Z,60.57
2023-05-28T07:16:10.323Z,59.08
2023-05-28T07:18:38.184Z,57.34
2023-05-28T07:21:06.687Z,57.54
2023-05-28T07:23:34.306Z,58.99
2023-05-28T07:26:03.267Z,58.02
2023-05-28T07:28:32.392Z,57.34
2023-05-28T07:30:59.935Z,57.43
2023-05-28T07:33:27.430Z,56.74
2023-05-28T07:35:55.230Z,56.87
2023-05-28T07:38:22.877Z,56.88
2023-05-28T07:40:51.769Z,55.74
2023-05-28T07:43:19.265Z,55.26
2023-05-28T07:45:48.148Z,55.04
2023-05-28T07:48:15.831Z,54.57
2023-05-28T07:50:43.392Z,54.20
2023-05-28T07:53:11.465Z,54.27
2023-05-28T07:55:39.320Z,55.18
2023-05-28T07:58:07.025Z,54.37
2023-05-28T08:00:34.564Z,54.14
2023-05-28T08:03:03.537Z,56.85
2023-05-28T08:05:31.650Z,53.96
2023-05-28T08:07:59.222Z,52.34
2023-05-28T08:10:26.758Z,52.48
2023-05-28T08:12:54.287Z,52.37
2023-05-28T08:15:21.957Z,51.96
2023-05-28T08:17:49.525Z,52.49
2023-05-28T08:20:18.637Z,52.18
2023-05-28T08:22:46.155Z,51.21
2023-05-28T08:25:13.994Z,53.85
2023-05-28T08:27:41.553Z,54.63
2023-05-28T08:30:10.210Z,51.63
2023-05-28T08:32:37.768Z,50.50
2023-05-28T08:35:05.780Z,49.75
2023-05-28T08:37:34.806Z,50.16
2023-05-28T08:40:02.380Z,50.10
2023-05-28T08:42:29.891Z,50.04
2023-05-28T08:44:57.443Z,50.82
2023-05-28T08:47:25.327Z,48.44
2023-05-28T08:49:54.338Z,50.18
2023-05-28T08:52:22.702Z,49.36
2023-05-28T08:54:51.790Z,46.76
2023-05-28T08:57:20.073Z,46.29
2023-05-28T08:59:49.252Z,46.67
2023-05-28T09:02:16.786Z,41.56
2023-05-28T09:04:47.105Z,43.56
2023-05-28T09:07:14.692Z,44.77
2023-05-28T09:09:42.601Z,43.44
2023-05-28T09:12:14.078Z,42.48
2023-05-28T09:14:43.506Z,41.90
2023-05-28T09:17:11.777Z,40.41
2023-05-28T09:19:39.538Z,40.50
2023-05-28T09:22:07.195Z,40.10
2023-05-28T09:24:34.795Z,41.30
2023-05-28T09:27:02.773Z,41.34
2023-05-28T09:29:31.783Z,40.30
2023-05-28T09:32:01.096Z,40.66
2023-05-28T09:34:29.782Z,40.38
2023-05-28T09:37:01.786Z,40.06
2023-05-28T09:39:29.500Z,41.82
2023-05-28T09:42:01.473Z,41.12
2023-05-28T09:44:33.430Z,41.46
2023-05-28T09:47:03.707Z,40.90
2023-05-28T09:49:31.801Z,41.90
2023-05-28T09:52:00.658Z,44.24
2023-05-28T09:54:32.663Z,41.06
2023-05-28T09:57:03.110Z,41.55
2023-05-28T09:59:33.388Z,40.91
2023-05-28T10:02:06.752Z,41.36
2023-05-28T10:04:38.072Z,41.66
2023-05-28T10:07:06.547Z,41.07
2023-05-28T10:09:35.039Z,44.35
2023-05-28T10:12:10.878Z,41.08
2023-05-28T10:14:41.883Z,42.99
2023-05-28T10:17:10.356Z,42.61
2023-05-28T10:19:39.450Z,41.13
2023-05-28T10:22:07.846Z,40.74
2023-05-28T10:24:36.285Z,40.42
2023-05-28T10:27:06.850Z,41.49
2023-05-28T10:29:42.112Z,41.53
2023-05-28T10:32:09.710Z,38.42
2023-05-28T10:34:38.484Z,39.29
2023-05-28T10:37:08.547Z,40.72
2023-05-28T10:39:39.691Z,39.27
2023-05-28T10:42:09.936Z,44.04
2023-05-28T10:45:07.771Z,44.19
2023-05-28T10:47:36.667Z,40.51
2023-05-28T10:50:17.416Z,39.67
2023-05-28T10:53:04.949Z,40.63
2023-05-28T10:55:48.352Z,42.39
2023-05-28T10:58:24.759Z,41.76
2023-05-28T11:00:54.371Z,40.68
2023-05-28T11:03:46.672Z,39.95
2023-05-28T11:06:15.127Z,41.11
2023-05-28T11:08:44.206Z,40.62
2023-05-28T11:11:16.657Z,40.42
2023-05-28T11:13:45.762Z,40.13
2023-05-28T11:16:16.804Z,39.82
2023-05-28T11:19:02.293Z,40.73
2023-05-28T11:21:30.010Z,40.53
2023-05-28T11:24:01.861Z,42.77
2023-05-28T11:26:29.629Z,41.05
2023-05-28T11:28:57.279Z,36.27
2023-05-28T11:31:26.401Z,39.71
2023-05-28T11:33:54.057Z,36.79
2023-05-28T11:36:22.424Z,40.43
2023-05-28T11:39:01.798Z,36.52
2023-05-28T11:41:29.361Z,36.21
2023-05-28T11:43:56.850Z,35.68
2023-05-28T11:46:25.990Z,35.77
2023-05-28T11:48:53.561Z,35.38
2023-05-28T11:51:21.793Z,36.03
2023-05-28T11:53:49.520Z,35.22
2023-05-28T11:56:17.087Z,34.92
2023-05-28T11:58:49.336Z,37.50
2023-05-28T12:01:18.543Z,36.74
2023-05-28T12:03:47.622Z,37.60
2023-05-28T12:06:23.018Z,35.10
2023-05-28T12:08:56.606Z,37.30
2023-05-28T12:11:27.606Z,35.89
2023-05-28T12:13:55.149Z,36.33
2023-05-28T12:16:22.841Z,34.62
2023-05-28T12:18:51.852Z,36.95
2023-05-28T12:21:21.384Z,35.72
2023-05-28T12:23:49.069Z,38.07
2023-05-28T12:26:17.023Z,36.91
2023-05-28T12:28:44.432Z,35.96
2023-05-28T12:31:12.204Z,36.30
2023-05-28T12:36:10.063Z,36.18
2023-05-28T12:38:37.699Z,36.16
2023-05-28T12:41:05.781Z,34.96
2023-05-28T12:43:33.304Z,36.11
2023-05-28T12:46:01.195Z,36.62
2023-05-28T12:48:28.953Z,36.54
2023-05-28T12:50:56.775Z,34.35
2023-05-28T12:53:25.875Z,35.60
2023-05-28T12:55:53.535Z,35.23
2023-05-28T12:58:22.272Z,34.42
2023-05-28T13:00:50.738Z,34.13
2023-05-28T13:03:20.737Z,34.82
2023-05-28T13:05:48.495Z,35.04
2023-05-28T13:08:17.692Z,38.23
2023-05-28T13:10:46.580Z,33.70
2023-05-28T13:13:14.146Z,34.16
2023-05-28T13:15:42.032Z,35.87
2023-05-28T13:18:09.493Z,34.99
2023-05-28T13:20:37.062Z,35.54
2023-05-28T13:23:04.690Z,34.15
2023-05-28T13:25:32.334Z,35.96
2023-05-28T13:28:02.995Z,34.94
2023-05-28T13:30:31.091Z,34.75
2023-05-28T13:32:58.812Z,34.30
2023-05-28T13:35:26.406Z,33.85
2023-05-28T13:37:54.099Z,33.01
2023-05-28T13:40:22.442Z,35.35
2023-05-28T13:42:50.872Z,33.47
2023-05-28T13:45:19.853Z,33.41
2023-05-28T13:47:47.523Z,34.20
2023-05-28T13:50:15.805Z,32.80
2023-05-28T13:52:45.311Z,33.05
2023-05-28T13:55:12.862Z,33.31
2023-05-28T13:57:40.427Z,32.32
2023-05-28T14:00:11.658Z,33.03
2023-05-28T14:02:42.151Z,33.93
2023-05-28T14:05:10.238Z,32.85
2023-05-28T14:07:37.891Z,33.93
2023-05-28T14:10:06.219Z,33.80
2023-05-28T14:12:33.745Z,33.07
2023-05-28T14:15:02.156Z,33.58
2023-05-28T14:17:29.791Z,33.51
2023-05-28T14:19:58.816Z,33.46
2023-05-28T14:22:26.799Z,35.48
2023-05-28T14:24:54.389Z,33.38
2023-05-28T14:27:22.060Z,34.40
2023-05-28T14:29:49.629Z,33.95
2023-05-28T14:32:17.166Z,33.06
2023-05-28T14:34:46.074Z,33.11
2023-05-28T14:37:15.055Z,33.83
2023-05-28T14:39:42.750Z,32.55
2023-05-28T14:42:10.488Z,33.20
2023-05-28T14:44:38.029Z,33.53
2023-05-28T14:47:06.341Z,33.08
2023-05-28T14:49:34.091Z,33.92
2023-05-28T14:52:24.295Z,31.99
2023-05-28T14:54:51.853Z,33.75
2023-05-28T14:57:19.842Z,33.65
2023-05-28T14:59:47.386Z,33.88
2023-05-28T15:02:15.206Z,33.13
2023-05-28T15:04:45.212Z,33.74
2023-05-28T15:07:14.139Z,33.79
2023-05-28T15:09:43.040Z,34.24
2023-05-28T15:12:12.115Z,33.75
2023-05-28T15:14:39.612Z,31.93
2023-05-28T15:17:07.195Z,32.11
2023-05-28T15:19:36.093Z,31.15
2023-05-28T15:22:05.156Z,30.74
2023-05-28T15:24:33.064Z,29.82
2023-05-28T15:27:02.321Z,30.90
2023-05-28T15:29:30.848Z,30.18
2023-05-28T15:31:59.040Z,31.91
2023-05-28T15:34:27.062Z,31.61
2023-05-28T15:36:55.112Z,32.43
2023-05-28T15:39:23.203Z,34.02
2023-05-28T15:41:53.464Z,32.88
2023-05-28T15:44:23.050Z,31.83
2023-05-28T15:46:50.803Z,31.42
2023-05-28T15:49:18.222Z,33.01
2023-05-28T15:51:45.781Z,31.91
2023-05-28T15:54:14.693Z,32.69
2023-05-28T15:56:42.428Z,31.20
2023-05-28T15:59:10.314Z,32.24
2023-05-28T16:01:41.554Z,32.28
2023-05-28T16:04:09.796Z,30.94
2023-05-28T16:06:37.691Z,31.41
2023-05-28T16:09:06.253Z,31.70
2023-05-28T16:11:37.864Z,33.12
2023-05-28T16:14:07.339Z,31.89
2023-05-28T16:16:36.457Z,31.96
2023-05-28T16:19:05.968Z,32.76
2023-05-28T16:21:35.591Z,33.11
2023-05-28T16:24:03.259Z,32.73
2023-05-28T16:26:31.355Z,32.69
2023-05-28T16:28:59.050Z,32.73
2023-05-28T16:31:27.209Z,30.98
2023-05-28T16:33:54.942Z,32.45
2023-05-28T16:36:24.334Z,32.32
2023-05-28T16:38:53.838Z,33.66
2023-05-28T16:41:22.921Z,30.99
2023-05-28T16:43:51.118Z,32.16
2023-05-28T16:46:20.299Z,33.31
2023-05-28T16:48:48.468Z,31.89
2023-05-28T16:51:17.646Z,33.79
2023-05-28T16:53:47.633Z,31.95
2023-05-28T16:56:16.420Z,33.90
2023-05-28T16:58:43.989Z,33.55
2023-05-28T17:01:11.512Z,33.76
2023-05-28T17:03:39.359Z,33.76
2023-05-28T17:06:06.898Z,32.71
2023-05-28T17:08:34.627Z,33.67
2023-05-28T17:11:03.436Z,33.77
2023-05-28T17:13:31.008Z,34.93
2023-05-28T17:15:58.571Z,33.81
2023-05-28T17:18:26.119Z,33.51
2023-05-28T17:20:53.734Z,33.99
2023-05-28T17:23:21.793Z,35.23
2023-05-28T17:25:49.307Z,34.38
2023-05-28T17:28:18.133Z,34.56
2023-05-28T17:30:45.678Z,35.58
2023-05-28T17:33:13.333Z,35.13
2023-05-28T17:35:41.079Z,35.06
2023-05-28T17:38:11.500Z,35.24
2023-05-28T17:40:39.070Z,35.13
2023-05-28T17:43:06.784Z,35.59
2023-05-28T17:45:35.868Z,35.53
2023-05-28T17:48:04.904Z,35.76
2023-05-28T17:50:32.532Z,35.64
2023-05-28T17:53:00.011Z,36.61
2023-05-28T17:55:27.514Z,37.40
2023-05-28T17:57:54.980Z,36.62
2023-05-28T18:00:22.896Z,37.30
2023-05-28T18:02:52.702Z,37.55
2023-05-28T18:05:20.320Z,39.16
2023-05-28T18:07:47.821Z,37.28
2023-05-28T18:10:15.460Z,38.02
2023-05-28T18:12:43.576Z,37.81
2023-05-28T18:15:12.305Z,39.01
2023-05-28T18:17:40.050Z,39.49
2023-05-28T18:20:10.507Z,39.20
2023-05-28T18:22:38.153Z,39.11
2023-05-28T18:25:07.667Z,39.76
2023-05-28T18:27:35.284Z,41.03
2023-05-28T18:30:02.861Z,41.94
2023-05-28T18:32:30.502Z,40.30
2023-05-28T18:34:58.734Z,41.82
2023-05-28T18:37:27.614Z,41.31
2023-05-28T18:39:55.122Z,41.32
2023-05-28T18:42:22.672Z,41.21
2023-05-28T18:44:50.246Z,41.92
2023-05-28T18:47:17.973Z,40.86
2023-05-28T18:49:45.544Z,40.87
2023-05-28T18:52:13.974Z,41.06
2023-05-28T18:54:42.798Z,42.47
2023-05-28T18:57:10.532Z,41.97
2023-05-28T18:59:41.841Z,42.92
2023-05-28T19:02:12.075Z,42.58
2023-05-28T19:04:39.636Z,44.32
2023-05-28T19:07:07.287Z,43.77
2023-05-28T19:09:34.847Z,42.94
2023-05-28T19:12:03.692Z,43.42
2023-05-28T19:14:31.226Z,42.87
2023-05-28T19:16:58.749Z,43.81
2023-05-28T19:19:26.268Z,44.41
2023-05-28T19:21:53.762Z,43.07
2023-05-28T19:24:21.484Z,43.81
2023-05-28T19:26:49.311Z,43.16
2023-05-28T19:29:18.201Z,44.86
2023-05-28T19:31:45.892Z,44.11
2023-05-28T19:34:13.429Z,43.68
2023-05-28T19:36:41.463Z,45.01
2023-05-28T19:39:10.442Z,45.15
2023-05-28T19:41:38.805Z,43.81
2023-05-28T19:44:07.940Z,43.15
2023-05-28T19:46:37.149Z,44.97
2023-05-28T19:49:04.739Z,45.02
2023-05-28T19:51:32.863Z,43.78
2023-05-28T19:54:00.482Z,44.28
2023-05-28T19:56:28.078Z,45.51
2023-05-28T19:58:55.917Z,46.06
2023-05-28T20:01:25.292Z,44.58
2023-05-28T20:03:54.342Z,46.31
2023-05-28T20:06:23.101Z,46.15
2023-05-28T20:08:50.654Z,45.51
2023-05-28T20:11:18.214Z,44.33
2023-05-28T20:13:45.767Z,46.62
2023-05-28T20:16:14.648Z,45.62
2023-05-28T20:18:42.172Z,46.23
2023-05-28T20:21:11.734Z,45.04
2023-05-28T20:23:39.297Z,45.42
2023-05-28T20:26:06.984Z,45.21
2023-05-28T20:28:34.559Z,45.50
2023-05-28T20:31:02.178Z,45.05
2023-05-28T20:33:30.541Z,46.65
2023-05-28T20:35:58.623Z,46.71
2023-05-28T20:38:27.821Z,45.29
2023-05-28T20:40:55.787Z,48.97
2023-05-28T20:43:23.620Z,48.44
2023-05-28T20:45:53.405Z,48.22
2023-05-28T20:48:21.480Z,48.10
2023-05-28T20:50:48.945Z,48.37
2023-05-28T20:53:16.528Z,47.66
2023-05-28T20:55:45.606Z,49.52
2023-05-28T20:58:19.324Z,48.82
2023-05-28T21:00:54.184Z,49.46
2023-05-28T21:03:22.975Z,49.08
2023-05-28T21:05:50.620Z,49.51
2023-05-28T21:08:18.131Z,50.28
2023-05-28T21:10:47.054Z,51.35
2023-05-28T21:13:15.320Z,49.91
2023-05-28T21:15:42.844Z,50.74
2023-05-28T21:18:10.482Z,49.97
2023-05-28T21:20:39.326Z,51.28
2023-05-28T21:23:07.139Z,50.15
2023-05-28T21:25:34.759Z,49.83
2023-05-28T21:28:03.650Z,51.62
2023-05-28T21:30:31.516Z,51.27
2023-05-28T21:32:59.175Z,50.64
2023-05-28T21:35:26.657Z,50.52
2023-05-28T21:37:54.223Z,50.58
2023-05-28T21:40:22.620Z,50.28
2023-05-28T21:42:50.669Z,51.08
2023-05-28T21:45:19.680Z,51.66
2023-05-28T21:47:47.247Z,50.98
2023-05-28T21:50:15.091Z,52.19
2023-05-28T21:52:42.593Z,51.23
2023-05-28T21:55:10.109Z,51.25
2023-05-28T21:57:39.263Z,51.37
2023-05-28T22:00:12.757Z,52.08
2023-05-28T22:02:41.903Z,51.52
2023-05-28T22:05:13.155Z,51.33
2023-05-28T22:07:40.685Z,51.54
2023-05-28T22:10:12.871Z,52.06
2023-05-28T22:12:41.902Z,51.82
2023-05-28T22:15:10.612Z,51.71
2023-05-28T22:17:41.633Z,52.26
2023-05-28T22:20:13.682Z,52.15
2023-05-28T22:22:42.922Z,52.39
2023-05-28T22:25:11.846Z,52.42
2023-05-28T22:27:40.507Z,51.77
2023-05-28T22:30:09.332Z,51.75
2023-05-28T22:32:36.967Z,52.48
2023-05-28T22:35:05.432Z,52.60
2023-05-28T22:37:34.337Z,53.05
2023-05-28T22:40:01.984Z,52.67
2023-05-28T22:42:30.536Z,51.96
2023-05-28T22:44:58.046Z,51.94
2023-05-28T22:47:27.724Z,52.05
2023-05-28T22:49:56.977Z,52.59
2023-05-28T22:52:25.564Z,52.91
2023-05-28T22:54:54.435Z,53.22
2023-05-28T22:57:22.046Z,53.57
2023-05-28T22:59:49.598Z,52.62
2023-05-28T23:02:17.205Z,53.43
2023-05-28T23:04:44.790Z,53.71
2023-05-28T23:07:12.342Z,53.86
2023-05-28T23:09:40.028Z,53.94
2023-05-28T23:12:08.911Z,54.34
2023-05-28T23:14:37.035Z,53.94
2023-05-28T23:17:04.613Z,54.75
2023-05-28T23:19:35.226Z,54.07
2023-05-28T23:22:03.005Z,53.32
2023-05-28T23:24:30.737Z,53.86
2023-05-28T23:26:58.292Z,53.79
2023-05-28T23:29:28.083Z,54.23
2023-05-28T23:31:55.684Z,54.88
2023-05-28T23:34:23.306Z,55.33
2023-05-28T23:36:50.825Z,54.18
2023-05-28T23:39:20.576Z,55.05
2023-05-28T23:41:48.080Z,54.34
2023-05-28T23:44:15.954Z,55.46
2023-05-28T23:46:44.947Z,54.10
2023-05-28T23:49:12.454Z,55.75
2023-05-28T23:51:39.945Z,55.97
2023-05-28T23:54:07.565Z,54.45
2023-05-28T23:56:35.114Z,55.14
2023-05-28T23:59:02.853Z,54.41
